Time;durP1;ratioP1;P1;durP2;ratioP2;P2;SDS_P1;SDS_P2;PMS_P1;PMS_P2;Temp;Humidity;BMP_temperature;BMP_pressure;BME280_temperature;BME280_humidity;BME280_pressure;Samples;Min_cycle;Max_cycle;Signal;HPM_P1;HPM_P2
2023/05/01 00:00:19;;;;;;;6.65;3.28;;;8.70;99.90;;;;;;4984223;28;10001247;-75
2023/05/01 00:02:45;;;;;;;5.03;3.03;;;8.70;99.90;;;;;;4998716;28;20484;-75
2023/05/01 00:05:10;;;;;;;5.38;2.88;;;8.60;99.90;;;;;;5005742;28;20087;-76
2023/05/01 00:07:36;;;;;;;5.68;3.10;;;8.60;99.90;;;;;;4998245;28;20386;-75
2023/05/01 00:10:02;;;;;;;7.28;3.15;;;8.50;99.90;;;;;;5001504;28;20080;-75
2023/05/01 00:12:27;;;;;;;6.00;3.30;;;8.50;99.90;;;;;;5005779;28;20100;-75
2023/05/01 00:14:53;;;;;;;5.47;3.13;;;8.50;99.90;;;;;;5005616;28;20040;-75
2023/05/01 00:17:21;;;;;;;5.65;3.30;;;8.40;99.90;;;;;;5006832;28;20041;-75
2023/05/01 00:19:51;;;;;;;9.07;3.67;;;8.50;99.90;;;;;;5003493;28;20029;-75
2023/05/01 00:22:16;;;;;;;7.20;3.55;;;8.60;99.90;;;;;;5002992;28;20034;-75
2023/05/01 00:24:42;;;;;;;8.93;3.60;;;8.60;99.90;;;;;;4998375;28;20035;-75
2023/05/01 00:27:07;;;;;;;7.75;3.63;;;8.80;99.90;;;;;;4998202;28;20041;-75
2023/05/01 00:29:33;;;;;;;5.80;2.97;;;8.80;99.90;;;;;;5003894;28;20474;-75
2023/05/01 00:31:58;;;;;;;6.43;3.38;;;8.80;99.90;;;;;;5002748;28;20382;-76
2023/05/01 00:34:24;;;;;;;7.15;3.20;;;8.70;99.90;;;;;;5008533;28;20033;-76
2023/05/01 00:36:50;;;;;;;6.95;3.53;;;8.60;99.90;;;;;;5010108;28;20111;-75
2023/05/01 00:39:16;;;;;;;6.32;3.40;;;8.60;99.90;;;;;;5007708;28;20402;-75
2023/05/01 00:41:41;;;;;;;7.68;3.80;;;8.60;99.90;;;;;;5003239;28;20390;-75
2023/05/01 00:44:07;;;;;;;7.10;3.70;;;8.60;99.90;;;;;;5005094;28;20026;-75
2023/05/01 00:46:33;;;;;;;5.53;3.40;;;8.70;99.90;;;;;;5007416;28;20052;-76
2023/05/01 00:49:00;;;;;;;4.78;3.03;;;8.60;99.90;;;;;;5000469;28;20105;-76
2023/05/01 00:51:28;;;;;;;6.60;3.25;;;8.50;99.90;;;;;;5009803;28;20037;-75
2023/05/01 00:53:55;;;;;;;5.18;3.15;;;8.40;99.90;;;;;;5005006;28;20029;-75
2023/05/01 00:56:21;;;;;;;5.82;3.47;;;8.40;99.90;;;;;;5009609;28;20030;-75
2023/05/01 00:58:52;;;;;;;6.40;3.20;;;8.30;99.90;;;;;;5000765;28;20034;-75
2023/05/01 01:01:21;;;;;;;5.78;3.08;;;8.30;99.90;;;;;;4999234;28;20030;-75
2023/05/01 01:03:47;;;;;;;10.00;3.70;;;8.30;99.90;;;;;;5009732;28;20032;-76
2023/05/01 01:06:34;;;;;;;7.97;3.63;;;8.20;99.90;;;;;;5009537;28;20462;-75
2023/05/01 01:09:20;;;;;;;9.32;3.80;;;8.30;99.90;;;;;;5006936;28;20160;-75
2023/05/01 01:12:23;;;;;;;9.65;3.55;;;8.50;99.90;;;;;;5005220;28;20037;-75
2023/05/01 01:15:21;;;;;;;8.45;3.05;;;8.60;99.90;;;;;;4999766;28;20022;-75
2023/05/01 01:17:58;;;;;;;6.25;3.55;;;8.60;99.90;;;;;;4982951;28;20034;-75
2023/05/01 01:21:11;;;;;;;6.07;3.45;;;8.60;99.90;;;;;;5009174;28;20482;-75
2023/05/01 01:24:16;;;;;;;8.27;3.60;;;8.50;99.90;;;;;;4927148;29;20417;-75
2023/05/01 01:27:21;;;;;;;8.43;3.70;;;8.40;99.90;;;;;;4991026;28;20113;-75
2023/05/01 01:30:30;;;;;;;6.47;3.40;;;8.30;99.90;;;;;;5000279;28;20586;-76
2023/05/01 01:33:33;;;;;;;7.07;3.40;;;8.20;99.90;;;;;;4945985;28;20096;-75
2023/05/01 01:36:06;;;;;;;6.82;3.40;;;8.20;99.90;;;;;;5004254;28;20069;-75
2023/05/01 01:38:42;;;;;;;6.65;3.50;;;8.10;99.90;;;;;;4997244;28;20056;-75
2023/05/01 01:41:13;;;;;;;9.70;3.95;;;8.00;99.90;;;;;;5000488;28;20296;-75
2023/05/01 01:43:45;;;;;;;8.52;3.70;;;8.00;99.90;;;;;;5002824;28;20315;-75
2023/05/01 01:46:11;;;;;;;8.25;3.78;;;8.00;99.90;;;;;;5001026;28;20490;-76
2023/05/01 01:48:41;;;;;;;6.00;3.53;;;8.00;99.90;;;;;;4999322;28;20025;-75
2023/05/01 01:51:15;;;;;;;5.53;3.25;;;8.00;99.90;;;;;;5002374;28;20033;-75
2023/05/01 01:53:43;;;;;;;5.18;3.45;;;7.90;99.90;;;;;;5003248;28;20036;-75
2023/05/01 01:56:10;;;;;;;5.38;3.58;;;7.90;99.90;;;;;;5006140;28;20034;-75
2023/05/01 01:58:37;;;;;;;7.40;3.15;;;7.90;99.90;;;;;;4999977;28;20030;-75
2023/05/01 02:01:05;;;;;;;7.10;3.53;;;7.90;99.90;;;;;;4996174;28;20100;-75
2023/05/01 02:03:32;;;;;;;6.60;2.97;;;7.90;99.90;;;;;;5002514;28;20037;-75
2023/05/01 02:05:59;;;;;;;5.53;3.15;;;7.90;99.90;;;;;;5003411;28;20029;-76
2023/05/01 02:08:29;;;;;;;6.65;3.13;;;7.90;99.90;;;;;;5000772;28;20045;-75
2023/05/01 02:10:58;;;;;;;6.35;3.40;;;7.90;99.90;;;;;;5002718;28;20033;-75
2023/05/01 02:13:27;;;;;;;9.35;3.92;;;7.90;99.90;;;;;;4995688;28;20033;-75
2023/05/01 02:15:54;;;;;;;4.80;3.15;;;8.00;99.90;;;;;;5008777;28;20041;-75
2023/05/01 02:18:21;;;;;;;7.80;3.65;;;8.10;99.90;;;;;;4995775;28;20028;-75
2023/05/01 02:20:47;;;;;;;7.90;3.33;;;8.20;99.90;;;;;;5000608;28;20030;-75
2023/05/01 02:23:13;;;;;;;8.95;3.55;;;8.20;99.90;;;;;;5000698;28;20088;-75
2023/05/01 02:25:40;;;;;;;7.97;3.47;;;8.20;99.90;;;;;;4994396;28;20113;-75
2023/05/01 02:28:12;;;;;;;9.32;3.78;;;8.20;99.90;;;;;;4999104;28;20030;-75
2023/05/01 02:30:38;;;;;;;6.93;3.90;;;8.20;99.90;;;;;;4992096;28;20453;-76
2023/05/01 02:33:07;;;;;;;6.40;3.35;;;8.20;99.90;;;;;;5004591;28;20026;-75
2023/05/01 02:35:46;;;;;;;5.90;3.15;;;8.20;99.90;;;;;;4998235;28;20053;-75
2023/05/01 02:38:15;;;;;;;7.82;3.60;;;8.20;99.90;;;;;;5004603;28;20112;-75
2023/05/01 02:40:45;;;;;;;9.57;3.17;;;8.20;99.90;;;;;;5005493;28;20034;-75
2023/05/01 02:43:15;;;;;;;8.52;3.47;;;8.20;99.90;;;;;;5001160;28;20030;-75
2023/05/01 02:45:42;;;;;;;6.28;3.28;;;8.30;99.90;;;;;;4997456;28;20095;-75
2023/05/01 02:48:12;;;;;;;5.75;3.10;;;8.30;99.90;;;;;;5007455;28;20101;-76
2023/05/01 02:50:39;;;;;;;6.85;3.10;;;8.20;99.90;;;;;;5006747;28;20021;-75
2023/05/01 02:53:06;;;;;;;7.35;3.85;;;8.20;99.90;;;;;;4998968;28;20038;-75
2023/05/01 02:55:32;;;;;;;4.38;3.17;;;8.20;99.90;;;;;;4993348;28;20032;-75
2023/05/01 02:57:58;;;;;;;6.15;3.10;;;8.20;99.90;;;;;;4997364;28;20222;-75
2023/05/01 03:00:27;;;;;;;7.25;3.20;;;8.10;99.90;;;;;;5006214;28;20033;-75
2023/05/01 03:02:53;;;;;;;4.13;3.08;;;8.00;99.90;;;;;;5006090;28;20405;-75
2023/05/01 03:05:19;;;;;;;6.97;3.08;;;7.90;99.90;;;;;;4994040;28;20398;-75
2023/05/01 03:07:45;;;;;;;8.77;3.33;;;7.90;99.90;;;;;;5005522;28;20021;-76
2023/05/01 03:10:11;;;;;;;7.22;3.15;;;7.80;99.90;;;;;;5003484;28;20030;-75
2023/05/01 03:12:36;;;;;;;5.32;3.22;;;7.80;99.90;;;;;;5000986;28;20397;-75
2023/05/01 03:15:02;;;;;;;4.50;3.05;;;7.80;99.90;;;;;;5005784;28;20026;-76
2023/05/01 03:17:28;;;;;;;5.13;3.10;;;7.80;99.90;;;;;;5006576;28;20197;-76
2023/05/01 03:19:54;;;;;;;6.07;3.03;;;7.80;99.90;;;;;;5007305;28;20038;-75
2023/05/01 03:22:20;;;;;;;4.88;2.95;;;7.70;99.90;;;;;;5005723;28;20030;-75
2023/05/01 03:24:46;;;;;;;5.47;3.20;;;7.70;99.90;;;;;;4998607;28;20819;-75
2023/05/01 03:27:12;;;;;;;6.00;3.30;;;7.70;99.90;;;;;;5006651;28;20646;-75
2023/05/01 03:29:37;;;;;;;6.35;3.00;;;7.60;99.90;;;;;;5007336;28;20467;-75
2023/05/01 03:32:04;;;;;;;5.25;3.10;;;7.60;99.90;;;;;;4984900;28;20034;-75
2023/05/01 03:34:29;;;;;;;5.03;3.08;;;7.50;99.90;;;;;;5004119;28;20125;-75
2023/05/01 03:36:55;;;;;;;6.10;3.30;;;7.50;99.90;;;;;;5005711;28;20504;-76
2023/05/01 03:39:21;;;;;;;6.10;3.03;;;7.40;99.90;;;;;;5000467;28;20088;-75
2023/05/01 03:41:47;;;;;;;7.60;3.60;;;7.40;99.90;;;;;;4997781;28;20045;-75
2023/05/01 03:44:12;;;;;;;7.30;3.33;;;7.40;99.90;;;;;;4987887;28;20383;-74
2023/05/01 03:46:38;;;;;;;6.35;3.28;;;7.40;99.90;;;;;;4989269;28;20050;-74
2023/05/01 03:49:03;;;;;;;6.50;3.63;;;7.40;99.90;;;;;;4988295;28;20040;-75
2023/05/01 03:51:29;;;;;;;8.93;3.10;;;7.30;99.90;;;;;;4997592;28;20041;-74
2023/05/01 03:53:58;;;;;;;6.90;3.20;;;7.30;99.90;;;;;;4987458;28;20438;-75
2023/05/01 03:56:24;;;;;;;4.82;3.17;;;7.30;99.90;;;;;;4987962;28;20026;-74
2023/05/01 03:58:53;;;;;;;5.15;3.00;;;7.20;99.90;;;;;;4987991;28;20030;-74
2023/05/01 04:01:18;;;;;;;5.28;3.20;;;7.20;99.90;;;;;;4993528;28;20683;-73
2023/05/01 04:03:45;;;;;;;6.28;3.50;;;7.20;99.90;;;;;;5003785;28;20067;-74
2023/05/01 04:06:11;;;;;;;6.72;3.58;;;7.20;99.90;;;;;;4987497;28;20077;-74
2023/05/01 04:08:37;;;;;;;5.18;3.10;;;7.20;99.90;;;;;;4996550;28;20022;-75
2023/05/01 04:11:02;;;;;;;7.82;3.40;;;7.20;99.90;;;;;;4991574;28;20045;-74
2023/05/01 04:13:28;;;;;;;7.65;3.40;;;7.10;99.90;;;;;;5013297;28;20508;-75
2023/05/01 04:15:56;;;;;;;5.40;2.97;;;7.10;99.90;;;;;;5010528;28;20033;-75
2023/05/01 04:18:21;;;;;;;7.10;3.53;;;7.20;99.90;;;;;;5010251;28;20030;-75
2023/05/01 04:20:47;;;;;;;5.40;3.00;;;7.20;99.90;;;;;;5009729;28;20037;-75
2023/05/01 04:23:13;;;;;;;5.43;3.05;;;7.20;99.90;;;;;;4998392;28;20032;-75
2023/05/01 04:25:38;;;;;;;5.85;3.00;;;7.20;99.90;;;;;;5007725;28;20045;-74
2023/05/01 04:28:04;;;;;;;6.47;3.05;;;7.20;99.90;;;;;;4997086;28;20483;-75
2023/05/01 04:30:30;;;;;;;5.82;3.50;;;7.30;99.90;;;;;;5006157;28;20041;-75
2023/05/01 04:32:57;;;;;;;7.30;3.30;;;7.30;99.90;;;;;;5010423;28;20022;-75
2023/05/01 04:35:24;;;;;;;5.93;3.20;;;7.40;99.90;;;;;;5009454;28;20026;-75
2023/05/01 04:37:50;;;;;;;5.03;3.03;;;7.40;99.90;;;;;;5008823;28;20036;-75
2023/05/01 04:40:16;;;;;;;5.05;3.22;;;7.40;99.90;;;;;;4999189;28;20028;-75
2023/05/01 04:42:41;;;;;;;4.90;3.17;;;7.50;99.90;;;;;;5008140;28;20030;-75
2023/05/01 04:45:07;;;;;;;6.43;3.20;;;7.50;99.90;;;;;;5001199;28;20065;-75
2023/05/01 04:47:33;;;;;;;5.15;3.05;;;7.60;99.90;;;;;;5002291;28;20046;-75
2023/05/01 04:49:59;;;;;;;4.75;3.15;;;7.60;99.90;;;;;;5010084;28;20501;-75
2023/05/01 04:52:24;;;;;;;5.82;3.42;;;7.70;99.90;;;;;;4997689;28;20219;-75
2023/05/01 04:54:50;;;;;;;4.80;2.92;;;7.80;99.90;;;;;;4992303;28;20031;-75
2023/05/01 04:57:15;;;;;;;7.45;3.60;;;7.80;99.90;;;;;;5001032;28;20097;-75
2023/05/01 04:59:42;;;;;;;7.03;3.47;;;7.90;99.90;;;;;;5009563;28;20033;-75
2023/05/01 05:02:07;;;;;;;6.15;3.38;;;7.90;99.90;;;;;;5007283;28;20087;-75
2023/05/01 05:04:33;;;;;;;6.38;3.83;;;8.00;99.90;;;;;;5000340;28;20042;-75
2023/05/01 05:06:59;;;;;;;6.63;3.42;;;8.00;99.90;;;;;;4993739;28;20200;-75
2023/05/01 05:09:24;;;;;;;6.30;3.90;;;8.00;99.90;;;;;;4996824;28;20065;-75
2023/05/01 05:11:50;;;;;;;7.03;3.97;;;8.10;99.90;;;;;;5006294;28;20033;-74
2023/05/01 05:14:15;;;;;;;9.82;4.00;;;8.10;99.90;;;;;;5006747;28;20332;-74
2023/05/01 05:16:41;;;;;;;7.72;3.63;;;8.00;99.90;;;;;;5010028;28;20096;-74
2023/05/01 05:19:07;;;;;;;7.43;3.90;;;8.10;99.90;;;;;;5008034;28;20474;-75
2023/05/01 05:21:33;;;;;;;8.82;4.40;;;8.10;99.90;;;;;;4990252;28;20023;-74
2023/05/01 05:23:59;;;;;;;7.85;3.97;;;8.20;99.90;;;;;;4992672;28;20113;-75
2023/05/01 05:26:25;;;;;;;7.30;3.90;;;8.20;99.90;;;;;;5008418;28;20108;-74
2023/05/01 05:28:51;;;;;;;9.35;4.40;;;8.30;99.90;;;;;;4999879;28;20499;-74
2023/05/01 05:31:17;;;;;;;7.20;3.92;;;8.40;99.90;;;;;;4995764;28;20081;-75
2023/05/01 05:33:43;;;;;;;9.65;4.05;;;8.50;99.90;;;;;;5009046;28;20389;-74
2023/05/01 05:36:09;;;;;;;9.57;4.30;;;8.50;99.90;;;;;;5007353;28;20030;-74
2023/05/01 05:38:34;;;;;;;8.80;4.50;;;8.60;99.90;;;;;;5001084;28;20030;-74
2023/05/01 05:41:00;;;;;;;8.27;4.78;;;8.70;99.90;;;;;;4998142;28;20061;-75
2023/05/01 05:43:26;;;;;;;8.63;4.32;;;8.80;99.90;;;;;;5008359;28;20042;-75
2023/05/01 05:45:59;;;;;;;7.38;4.22;;;8.90;99.90;;;;;;5008847;28;20053;-75
2023/05/01 05:48:25;;;;;;;10.18;5.30;;;9.00;99.90;;;;;;4993253;28;20076;-75
2023/05/01 05:50:51;;;;;;;11.13;4.40;;;9.10;99.90;;;;;;5008163;28;20030;-74
2023/05/01 05:53:17;;;;;;;8.50;4.40;;;9.20;99.90;;;;;;5002268;28;20119;-75
2023/05/01 05:55:44;;;;;;;8.32;4.13;;;9.30;99.90;;;;;;5001999;28;20022;-75
2023/05/01 05:58:10;;;;;;;8.73;4.05;;;9.40;99.90;;;;;;5003967;28;20391;-74
2023/05/01 06:00:36;;;;;;;12.98;4.40;;;9.50;99.90;;;;;;5000276;28;20029;-74
2023/05/01 06:03:01;;;;;;;6.82;4.32;;;9.60;99.90;;;;;;4999060;28;20107;-75
2023/05/01 06:05:27;;;;;;;9.75;4.63;;;9.70;99.90;;;;;;5004433;28;20034;-75
2023/05/01 06:07:53;;;;;;;6.30;4.40;;;9.80;99.90;;;;;;5005535;28;20057;-75
2023/05/01 06:10:19;;;;;;;7.65;4.22;;;9.90;99.90;;;;;;5006011;28;20035;-75
2023/05/01 06:12:45;;;;;;;7.28;3.88;;;10.10;99.90;;;;;;4996284;28;20049;-74
2023/05/01 06:15:14;;;;;;;8.70;4.63;;;10.20;99.90;;;;;;5004994;28;20025;-75
2023/05/01 06:17:40;;;;;;;10.57;5.07;;;10.20;99.90;;;;;;5005389;28;20104;-75
2023/05/01 06:20:06;;;;;;;10.30;4.68;;;10.40;99.90;;;;;;5002470;28;20030;-78
2023/05/01 06:22:32;;;;;;;9.75;4.45;;;10.50;99.90;;;;;;4996890;28;20457;-75
2023/05/01 06:24:58;;;;;;;8.13;4.15;;;10.60;99.90;;;;;;4995259;28;20026;-75
2023/05/01 06:27:23;;;;;;;12.25;4.70;;;10.70;99.90;;;;;;4998727;28;20030;-75
2023/05/01 06:29:50;;;;;;;7.82;5.00;;;10.80;99.90;;;;;;5000027;28;20085;-74
2023/05/01 06:32:15;;;;;;;8.15;4.72;;;10.90;99.90;;;;;;5004041;28;20049;-75
2023/05/01 06:34:41;;;;;;;10.70;5.03;;;11.00;99.90;;;;;;5002822;28;20231;-75
2023/05/01 06:37:06;;;;;;;7.18;4.60;;;11.10;99.90;;;;;;5003064;28;20042;-75
2023/05/01 06:39:33;;;;;;;9.15;5.03;;;11.20;99.90;;;;;;5004606;28;20406;-74
2023/05/01 06:42:00;;;;;;;10.27;5.07;;;11.20;99.90;;;;;;5005919;28;20109;-74
2023/05/01 06:44:25;;;;;;;8.57;4.80;;;11.40;99.90;;;;;;4995459;28;20056;-74
2023/05/01 06:46:51;;;;;;;7.32;4.53;;;11.50;99.90;;;;;;4996248;28;20494;-76
2023/05/01 06:49:16;;;;;;;8.70;4.45;;;11.60;99.90;;;;;;5006139;28;20109;-75
2023/05/01 06:51:42;;;;;;;8.50;4.55;;;11.70;99.90;;;;;;5003880;28;20108;-75
2023/05/01 06:54:08;;;;;;;10.95;5.43;;;11.80;99.90;;;;;;5000963;28;20376;-74
2023/05/01 06:56:33;;;;;;;9.25;5.15;;;11.90;99.90;;;;;;5004845;28;20317;-74
2023/05/01 06:58:59;;;;;;;9.75;4.80;;;12.00;99.90;;;;;;4996933;28;20083;-77
2023/05/01 07:01:24;;;;;;;10.00;4.90;;;12.10;99.90;;;;;;4999146;28;20036;-73
2023/05/01 07:03:50;;;;;;;8.88;5.00;;;12.30;99.90;;;;;;4996499;28;20030;-74
2023/05/01 07:06:16;;;;;;;9.02;5.10;;;12.40;99.90;;;;;;5005962;28;20026;-74
2023/05/01 07:08:41;;;;;;;8.75;5.07;;;12.50;99.90;;;;;;5006110;28;20026;-76
2023/05/01 07:11:07;;;;;;;10.50;5.40;;;12.70;99.90;;;;;;4999280;28;20026;-74
2023/05/01 07:13:32;;;;;;;11.43;5.43;;;12.80;99.90;;;;;;5005918;28;20092;-74
2023/05/01 07:15:58;;;;;;;10.50;4.97;;;13.00;99.90;;;;;;5004006;28;20034;-74
2023/05/01 07:18:24;;;;;;;9.00;5.22;;;13.00;99.90;;;;;;5001084;28;20606;-74
2023/05/01 07:20:49;;;;;;;6.97;4.65;;;13.10;99.90;;;;;;5005713;28;20537;-74
2023/05/01 07:23:15;;;;;;;11.30;5.43;;;13.20;99.90;;;;;;5001892;28;20327;-74
2023/05/01 07:25:43;;;;;;;10.80;5.22;;;13.20;99.90;;;;;;5001061;28;20029;-75
2023/05/01 07:28:08;;;;;;;10.32;5.68;;;13.30;99.90;;;;;;4996799;28;20115;-75
2023/05/01 07:30:37;;;;;;;9.40;5.60;;;13.20;99.90;;;;;;5002448;28;20485;-75
2023/05/01 07:33:04;;;;;;;7.70;5.10;;;13.30;99.90;;;;;;4990950;28;20031;-75
2023/05/01 07:35:30;;;;;;;11.95;5.55;;;13.30;99.90;;;;;;5001432;28;20025;-75
2023/05/01 07:37:56;;;;;;;9.93;5.38;;;;;;;;;;5004722;28;20034;-75
2023/05/01 07:40:21;;;;;;;9.40;5.32;;;13.50;99.90;;;;;;5003651;28;20647;-75
2023/05/01 07:42:47;;;;;;;9.95;5.18;;;13.60;99.90;;;;;;5004667;28;20032;-75
2023/05/01 07:45:13;;;;;;;8.00;5.22;;;13.70;99.90;;;;;;4998127;28;20471;-75
2023/05/01 07:47:38;;;;;;;10.30;5.68;;;13.70;99.90;;;;;;5009052;28;20037;-74
2023/05/01 07:50:08;;;;;;;9.65;5.07;;;13.90;99.90;;;;;;5008925;28;20026;-75
2023/05/01 07:52:33;;;;;;;11.45;5.47;;;14.00;99.90;;;;;;5002843;28;20034;-75
2023/05/01 07:54:59;;;;;;;9.52;5.35;;;14.20;99.90;;;;;;5000832;28;20482;-75
2023/05/01 07:57:25;;;;;;;8.30;5.65;;;14.30;99.90;;;;;;5002963;28;20088;-75
2023/05/01 07:59:56;;;;;;;8.80;5.47;;;14.30;99.90;;;;;;5007088;28;20041;-75
2023/05/01 08:02:22;;;;;;;10.60;5.15;;;14.40;99.90;;;;;;4998746;28;20034;-75
2023/05/01 08:04:48;;;;;;;10.25;5.43;;;14.60;99.90;;;;;;5005985;28;20018;-75
2023/05/01 08:07:14;;;;;;;9.82;5.80;;;14.70;99.90;;;;;;5003062;28;20033;-76
2023/05/01 08:09:39;;;;;;;10.80;5.30;;;14.80;99.90;;;;;;5005028;28;20478;-75
2023/05/01 08:12:05;;;;;;;10.27;5.38;;;14.90;99.90;;;;;;5005410;28;20053;-76
2023/05/01 08:14:31;;;;;;;8.50;5.32;;;15.10;99.90;;;;;;5006712;28;20026;-76
2023/05/01 08:16:57;;;;;;;7.82;5.38;;;15.30;99.90;;;;;;4999579;28;20482;-75
2023/05/01 08:19:22;;;;;;;12.27;5.43;;;15.40;99.90;;;;;;5004323;28;20072;-79
2023/05/01 08:21:48;;;;;;;11.45;5.43;;;15.50;98.40;;;;;;5003231;28;20048;-76
2023/05/01 08:24:14;;;;;;;8.23;5.30;;;15.70;99.10;;;;;;4998603;28;20056;-76
2023/05/01 08:26:40;;;;;;;9.45;5.38;;;15.80;99.70;;;;;;5005815;28;20049;-76
2023/05/01 08:29:05;;;;;;;8.15;4.93;;;15.90;99.90;;;;;;5007932;28;20115;-76
2023/05/01 08:31:31;;;;;;;10.45;5.43;;;16.00;99.90;;;;;;4998093;28;20109;-77
2023/05/01 08:33:56;;;;;;;7.97;5.40;;;16.00;97.90;;;;;;4998968;28;20102;-76
2023/05/01 08:36:22;;;;;;;11.32;5.57;;;16.10;98.40;;;;;;5007135;28;20120;-75
2023/05/01 08:38:48;;;;;;;10.88;6.00;;;16.10;99.30;;;;;;5006553;28;20088;-75
2023/05/01 08:41:22;;;;;;;9.90;5.38;;;16.10;98.10;;;;;;5002890;28;20026;-75
2023/05/01 08:43:49;;;;;;;9.75;5.90;;;16.20;97.80;;;;;;5007217;28;20025;-77
2023/05/01 08:46:43;;;;;;;8.95;5.45;;;16.10;97.90;;;;;;5003939;28;20434;-75
2023/05/01 08:49:13;;;;;;;9.15;5.15;;;16.20;97.60;;;;;;5003720;28;20022;-75
2023/05/01 08:51:43;;;;;;;9.82;5.82;;;16.10;98.00;;;;;;5005569;28;20076;-75
2023/05/01 08:54:10;;;;;;;8.98;5.40;;;16.20;97.10;;;;;;4997755;28;20034;-75
2023/05/01 08:56:37;;;;;;;12.52;6.15;;;16.30;98.00;;;;;;4997591;28;20541;-75
2023/05/01 08:59:04;;;;;;;11.38;5.95;;;16.40;98.40;;;;;;4991133;28;20042;-75
2023/05/01 09:01:32;;;;;;;9.07;5.50;;;16.50;97.60;;;;;;4997115;28;20033;-76
2023/05/01 09:04:02;;;;;;;10.20;5.70;;;16.60;97.40;;;;;;4998095;28;20443;-75
2023/05/01 09:06:28;;;;;;;7.93;5.30;;;16.70;94.80;;;;;;5003110;28;20033;-75
2023/05/01 09:08:54;;;;;;;10.43;5.35;;;16.70;93.50;;;;;;5007574;28;20607;-75
2023/05/01 09:11:22;;;;;;;8.95;5.60;;;16.70;92.30;;;;;;5001706;28;20021;-75
2023/05/01 09:13:47;;;;;;;13.05;6.65;;;16.90;93.40;;;;;;5006470;28;20036;-75
2023/05/01 09:16:13;;;;;;;8.13;5.80;;;17.00;92.70;;;;;;5003254;28;20030;-75
2023/05/01 09:18:39;;;;;;;8.27;5.53;;;17.00;91.70;;;;;;5007080;28;20052;-75
2023/05/01 09:21:05;;;;;;;7.45;5.32;;;16.90;90.10;;;;;;5002800;28;20400;-75
2023/05/01 09:23:31;;;;;;;9.15;6.13;;;17.00;90.50;;;;;;5007490;28;20033;-78
2023/05/01 09:25:59;;;;;;;8.77;5.63;;;16.90;89.50;;;;;;5003068;28;20116;-74
2023/05/01 09:28:40;;;;;;;7.90;5.35;;;17.00;90.40;;;;;;5000989;28;20441;-79
2023/05/01 09:31:29;;;;;;;10.80;5.20;;;17.10;91.80;;;;;;4993227;28;20033;-76
2023/05/01 09:34:22;;;;;;;8.13;5.25;;;17.30;90.80;;;;;;4992097;28;20022;-76
2023/05/01 09:36:48;;;;;;;;;;;17.40;92.00;;;;;;4993087;28;20033;-75
2023/05/01 09:39:21;;;;;;;11.15;6.18;;;17.50;90.50;;;;;;5009100;28;20358;-75
2023/05/01 09:41:54;;;;;;;10.52;5.18;;;17.40;91.20;;;;;;4996591;28;20123;-78
2023/05/01 09:44:20;;;;;;;8.25;5.38;;;17.30;90.10;;;;;;4996859;28;20034;-78
2023/05/01 09:46:46;;;;;;;9.57;5.55;;;17.20;90.60;;;;;;4991554;28;20143;-78
2023/05/01 09:49:11;;;;;;;9.93;5.53;;;17.10;90.00;;;;;;5001465;28;20038;-77
2023/05/01 09:51:38;;;;;;;8.45;4.78;;;17.10;90.50;;;;;;4998822;28;20358;-77
2023/05/01 09:54:05;;;;;;;9.57;5.65;;;17.20;90.20;;;;;;5002972;28;20025;-78
2023/05/01 09:56:32;;;;;;;8.88;5.22;;;17.30;92.40;;;;;;5005252;28;20039;-78
2023/05/01 09:59:18;;;;;;;7.65;5.00;;;17.50;90.80;;;;;;5006920;28;20034;-75
2023/05/01 10:01:45;;;;;;;8.13;5.18;;;17.60;90.70;;;;;;4649820;28;10000486;-74
2023/05/01 10:04:12;;;;;;;9.35;4.90;;;17.70;90.00;;;;;;4994561;28;20030;-77
2023/05/01 10:06:38;;;;;;;6.15;4.63;;;17.80;90.50;;;;;;4996435;28;20397;-78
2023/05/01 10:09:06;;;;;;;6.97;4.90;;;18.00;89.70;;;;;;5000585;28;20427;-75
2023/05/01 10:11:52;;;;;;;9.43;4.80;;;18.10;90.10;;;;;;5001339;28;20042;-77
2023/05/01 10:14:19;;;;;;;9.23;5.25;;;18.20;90.40;;;;;;5001068;28;20045;-78
2023/05/01 10:16:45;;;;;;;6.88;4.82;;;18.30;91.40;;;;;;5002797;28;20091;-74
2023/05/01 10:19:11;;;;;;;8.63;5.07;;;18.40;91.20;;;;;;5000252;28;20050;-74
2023/05/01 10:21:37;;;;;;;8.75;4.93;;;18.50;90.70;;;;;;4996358;28;20041;-75
2023/05/01 10:24:04;;;;;;;7.10;4.88;;;18.60;91.10;;;;;;5003560;28;20030;-76
2023/05/01 10:26:42;;;;;;;7.85;5.15;;;18.50;87.90;;;;;;5094571;27;20114;-75
2023/05/01 10:29:08;;;;;;;8.25;4.55;;;18.40;90.10;;;;;;5077220;28;20028;-74
2023/05/01 10:31:34;;;;;;;6.95;4.60;;;18.40;89.50;;;;;;5074783;28;20028;-75
2023/05/01 10:34:00;;;;;;;6.43;4.50;;;18.30;90.50;;;;;;5073267;28;20120;-76
2023/05/01 10:36:38;;;;;;;6.10;4.13;;;18.30;91.80;;;;;;5073463;28;20520;-75
2023/05/01 10:39:04;;;;;;;6.43;4.40;;;18.40;91.60;;;;;;5072976;28;20032;-74
2023/05/01 10:41:58;;;;;;;7.28;4.70;;;18.60;91.20;;;;;;5069667;28;20067;-75
2023/05/01 10:44:25;;;;;;;11.23;4.53;;;18.70;89.40;;;;;;5078477;28;20043;-75
2023/05/01 10:46:51;;;;;;;5.13;4.20;;;18.70;88.90;;;;;;5083661;28;20480;-75
2023/05/01 10:49:18;;;;;;;8.10;4.60;;;18.80;89.00;;;;;;5077764;28;20025;-75
2023/05/01 10:52:02;;;;;;;5.90;4.00;;;19.00;90.30;;;;;;5068702;28;20329;-75
2023/05/01 10:54:32;;;;;;;6.85;4.90;;;19.20;88.10;;;;;;5067161;28;20029;-75
2023/05/01 10:57:00;;;;;;;6.80;4.30;;;19.40;87.90;;;;;;5080985;28;20025;-75
2023/05/01 10:59:46;;;;;;;4.68;3.85;;;19.50;88.00;;;;;;5072193;28;20029;-75
2023/05/01 11:02:21;;;;;;;4.95;4.10;;;19.60;86.90;;;;;;5058433;28;20112;-76
2023/05/01 11:04:50;;;;;;;5.28;3.75;;;19.70;87.60;;;;;;5073471;28;20100;-78
2023/05/01 11:07:17;;;;;;;6.28;4.20;;;19.80;86.10;;;;;;5069092;28;20025;-75
2023/05/01 11:09:50;;;;;;;5.65;3.20;;;19.90;86.90;;;;;;5067498;28;20047;-75
2023/05/01 11:12:44;;;;;;;6.88;4.00;;;20.00;85.20;;;;;;5072125;28;20723;-75
2023/05/01 11:15:30;;;;;;;5.60;3.58;;;20.00;83.60;;;;;;5066233;28;20467;-75
2023/05/01 11:17:57;;;;;;;4.85;3.90;;;20.00;82.70;;;;;;5071850;28;20090;-76
2023/05/01 11:20:25;;;;;;;7.55;4.82;;;20.00;83.40;;;;;;5074339;28;20032;-75
2023/05/01 11:22:53;;;;;;;5.38;3.83;;;19.90;84.60;;;;;;5074004;28;20039;-76
2023/05/01 11:25:26;;;;;;;5.68;3.80;;;20.00;84.10;;;;;;5064849;28;20045;-76
2023/05/01 11:27:57;;;;;;;5.85;3.80;;;20.00;83.00;;;;;;5070654;28;20024;-76
2023/05/01 11:30:23;;;;;;;5.47;3.95;;;20.10;82.60;;;;;;5064128;28;20028;-76
2023/05/01 11:32:50;;;;;;;5.30;3.55;;;20.10;82.90;;;;;;5076359;28;20051;-76
2023/05/01 11:35:21;;;;;;;6.20;3.40;;;20.20;82.80;;;;;;5078431;28;20107;-78
2023/05/01 11:37:47;;;;;;;5.90;3.47;;;20.30;80.70;;;;;;5058073;28;20040;-78
2023/05/01 11:40:27;;;;;;;4.50;3.40;;;20.30;80.40;;;;;;5050702;28;20083;-77
2023/05/01 11:43:04;;;;;;;4.45;3.40;;;20.40;82.00;;;;;;5050783;28;20035;-79
2023/05/01 11:45:31;;;;;;;7.32;3.45;;;20.40;81.30;;;;;;5052255;28;20032;-81
2023/05/01 11:47:57;;;;;;;4.28;3.20;;;20.40;82.30;;;;;;5050786;28;20552;-78
2023/05/01 11:50:34;;;;;;;8.63;3.40;;;20.40;79.70;;;;;;5056007;28;20021;-83
2023/05/01 11:53:01;;;;;;;4.68;3.50;;;20.40;80.70;;;;;;5056316;28;20024;-81
2023/05/01 11:55:34;;;;;;;5.65;3.10;;;20.50;78.40;;;;;;5059146;28;20094;-84
2023/05/01 11:58:00;;;;;;;;;;;20.60;80.00;;;;;;5053627;28;20087;-81
2023/05/01 12:00:32;;;;;;;5.07;2.97;;;20.70;75.40;;;;;;5054053;28;20013;-76
2023/05/01 12:03:02;;;;;;;5.82;2.85;;;20.80;78.40;;;;;;5050178;28;20569;-79
2023/05/01 12:05:30;;;;;;;5.18;3.08;;;20.80;76.90;;;;;;5056391;28;20112;-72
2023/05/01 12:08:11;;;;;;;4.35;2.47;;;20.70;72.20;;;;;;5050370;28;20289;-72
2023/05/01 12:10:38;;;;;;;3.45;2.50;;;20.50;74.40;;;;;;5060114;28;20029;-72
2023/05/01 12:13:06;;;;;;;4.65;2.30;;;20.40;75.00;;;;;;5067708;28;20025;-72
2023/05/01 12:15:36;;;;;;;4.03;2.60;;;20.40;73.50;;;;;;5061570;28;20134;-72
2023/05/01 12:18:04;;;;;;;3.35;2.70;;;20.40;73.80;;;;;;5056741;28;20458;-71
2023/05/01 12:20:38;;;;;;;4.22;2.42;;;20.40;76.90;;;;;;5057405;28;20128;-72
2023/05/01 12:23:05;;;;;;;3.25;2.22;;;20.30;72.40;;;;;;5061453;28;20389;-72
2023/05/01 12:25:34;;;;;;;2.15;1.80;;;20.20;70.60;;;;;;5057999;28;20041;-72
2023/05/01 12:28:03;;;;;;;1.80;1.70;;;20.30;71.70;;;;;;5068740;28;20107;-72
2023/05/01 12:30:28;;;;;;;2.00;1.80;;;20.40;69.80;;;;;;5049444;28;20044;-72
2023/05/01 12:32:56;;;;;;;3.90;2.40;;;20.50;69.70;;;;;;5048350;28;20029;-72
2023/05/01 12:35:22;;;;;;;3.38;2.35;;;20.60;70.60;;;;;;5049997;28;20104;-72
2023/05/01 12:37:47;;;;;;;3.75;2.00;;;20.70;73.40;;;;;;5057247;28;20029;-72
2023/05/01 12:40:13;;;;;;;2.05;1.80;;;20.90;70.30;;;;;;5049682;28;20040;-72
2023/05/01 12:42:40;;;;;;;3.95;1.98;;;21.30;70.10;;;;;;5048105;28;20139;-72
2023/05/01 12:45:08;;;;;;;1.88;1.73;;;21.40;68.40;;;;;;5050548;28;20035;-73
2023/05/01 12:47:37;;;;;;;2.90;1.60;;;21.50;68.70;;;;;;5049111;28;20059;-72
2023/05/01 12:50:04;;;;;;;2.70;1.55;;;21.50;66.70;;;;;;5048970;28;20040;-72
2023/05/01 12:52:30;;;;;;;2.63;1.42;;;21.50;64.40;;;;;;5066227;28;20119;-72
2023/05/01 12:55:05;;;;;;;2.80;1.50;;;21.50;67.40;;;;;;5056542;28;20162;-73
2023/05/01 12:57:31;;;;;;;1.42;1.33;;;21.40;65.90;;;;;;5068683;28;20032;-72